Carp Lake, MI

8:02 PM EDT on October 25, 2014 (GMT -0400)
Creekside, 4 Miles WSW Bliss | Change Station
CLOSE
Current Station
Personal Weather Station
Location: Bliss Township, MI
Elevation: 708 ft
Nearby Weather Stations

Elev 708 ft 45.65 °N, 84.92 °W | Updated 11 seconds ago

Clear
Clear
52.8 °F
Feels Like 52.8 °F
N
12.0
Wind Variable Wind from NW
Gusts 0.0 mph

Today
High -- | Low -- °F
--% Chance of Precip.
Yesterday
High -- | Low -- °F
Precip. -- in
8:09 AM 6:36 PM
Waxing Crescent, 5% visible
Pressure 29.70 in
Visibility 10.0 miles
Clouds Clear
Dew Point 37 °F
Humidity 55%
Rainfall 0.00 in
Snow Depth Not available.
UV 0 out of 12
Pollen 1.60 out of 12
Ozone Good
PM2.5 Good
Flu Activity Sporadic
METAR KMCD 252359Z AUTO 29020G32KT 10SM CLR 11/00 A2970 RMK AO2 T01100001 10143 20110

More Conditions Fewer Conditions

Pressure 29.70 in
Visibility 10.0 miles
Clouds Clear
Dew Point 37 °F
Humidity 55%
Rainfall 0.00 in
Snow Depth Not available.
UV 0 out of 12
Pollen 1.60 out of 12
Ozone Good
PM2.5 Good
Flu Activity Sporadic
METAR KMCD 252359Z AUTO 29020G32KT 10SM CLR 11/00 A2970 RMK AO2 T01100001 10143 20110

More Conditions Fewer Conditions

Nowcast | as of 8:00 PM EDT on October 25, 2014

At 9 PM...mostly clear. Temperature 50. Northwest winds 12 mph. At 11 PM...mostly clear. Temperature 48. West winds 14 mph with gusts to 25 mph. At 1 am...mostly clear. Temperature 46. Northwest winds 12 mph. At 3 am...mostly clear. Temperature 45. Northwest winds 11 mph.

×

10-Day Weather Forecast

Almanac

Astronomy

Oct. 25, 2014 Rise Set
Actual Time 8:09 AM EDT 6:36 PM EDT
Civil Twilight 7:39 AM EDT 7:07 PM EDT
Nautical Twilight 7:04 AM EDT 7:42 PM EDT
Astronomical Twilight 6:29 AM EDT 8:16 PM EDT
Moon 9:51 AM EDT (10/25) 7:54 PM EDT (10/25)
Length of Visible Light 11h 27m
Length of Day
10h 26m
Tomorrow will be 2m 59s shorter.
Waxing Crescent, 5% of the Moon is Illuminated
Today
Waxing Crescent
Oct 30
First Quarter
Nov 6
Full
Nov 14
Last Quarter
Nov 22
New

Today's Extremes

State Highs State Lows

Community

WunderPhotos

Upload Photos

1,765,037 photos uploaded!

Nearby

Air Quality

  Air Quality AQ Index Pollutant
Yesterday Good
PM2.5
Yesterday Good
OZONE
Current Good
OZONE
Current Good
PM2.5
Saturday Good
PM2.5
Sunday Good
PM2.5
Monday Good
PM2.5

Snow Depth

Station Depth Elevation
No new snow has been reported.

Earthquake Activity

City Distance Mag. Time & Date
No recent earthquake activity has been reported nearby.
Minimum magnitude displayed is 2.5.

Coastal Water Temperatures

Place Temperature
Mackinaw City, MI 53.1 °F
Rock Cut, MI 50.0 °F
West Neebish, MI 52.0 °F
Little Rapids, MI 52.0 °F
S W Pier, MI 51.1 °F

Nearby Weather Stations